Time;durP1;ratioP1;P1;durP2;ratioP2;P2;SDS_P1;SDS_P2;PMS_P1;PMS_P2;Temp;Humidity;BMP_temperature;BMP_pressure;BME280_temperature;BME280_humidity;BME280_pressure;Samples;Min_cycle;Max_cycle;Signal;HPM_P1;HPM_P2
2022/11/13 00:01:18;;;;;;;65.07;32.22;;;12.40;72.60;;;;;;7382416;19;20025;-79
2022/11/13 00:03:50;;;;;;;67.72;30.33;;;12.40;72.70;;;;;;7404891;19;20022;-79
2022/11/13 00:06:22;;;;;;;63.92;30.63;;;12.40;72.90;;;;;;7380785;19;20022;-79
2022/11/13 00:08:54;;;;;;;65.53;28.98;;;12.40;72.70;;;;;;7393453;19;20121;-79
2022/11/13 00:11:25;;;;;;;59.40;29.73;;;12.40;72.60;;;;;;7393691;19;20047;-79
2022/11/13 00:13:54;;;;;;;;;;;12.40;72.70;;;;;;7377569;19;20036;-79
2022/11/13 00:16:24;;;;;;;52.65;27.33;;;12.40;72.60;;;;;;7377756;19;19923;-79
2022/11/13 00:18:58;;;;;;;56.13;28.60;;;12.40;72.60;;;;;;7399471;19;20448;-79
2022/11/13 00:21:32;;;;;;;61.75;28.20;;;12.40;72.70;;;;;;7377425;19;20047;-79
2022/11/13 00:24:03;;;;;;;54.38;28.10;;;12.40;72.70;;;;;;7376858;19;20014;-79
2022/11/13 00:26:32;;;;;;;64.05;29.75;;;12.40;72.60;;;;;;7379943;19;20007;-79
2022/11/13 00:29:03;;;;;;;80.97;34.00;;;12.40;72.50;;;;;;7375168;19;20365;-79
2022/11/13 00:31:34;;;;;;;79.70;33.60;;;12.40;72.50;;;;;;7374249;19;20090;-79
2022/11/13 00:34:03;;;;;;;;;;;12.40;72.70;;;;;;7396758;19;20086;-78
2022/11/13 00:36:34;;;;;;;64.85;30.80;;;12.40;73.20;;;;;;7375091;19;20317;-81
2022/11/13 00:39:03;;;;;;;;;;;12.40;73.10;;;;;;7377634;19;20039;-79
2022/11/13 00:41:35;;;;;;;63.58;30.25;;;12.40;73.20;;;;;;7377533;19;19915;-79
2022/11/13 00:44:03;;;;;;;54.72;27.80;;;12.30;72.90;;;;;;7377277;19;20019;-79
2022/11/13 00:46:32;;;;;;;66.95;29.67;;;12.30;72.90;;;;;;7378056;19;20109;-79
2022/11/13 00:49:01;;;;;;;68.72;28.77;;;12.30;73.00;;;;;;7395078;19;20022;-78
2022/11/13 00:51:30;;;;;;;56.90;27.15;;;12.20;73.00;;;;;;7374284;19;20031;-79
2022/11/13 00:54:01;;;;;;;75.18;34.55;;;12.20;73.20;;;;;;7373276;19;20010;-78
2022/11/13 00:56:30;;;;;;;56.53;27.48;;;12.20;73.30;;;;;;7374955;19;20443;-78
2022/11/13 00:58:59;;;;;;;59.28;28.10;;;12.20;73.30;;;;;;7370946;19;20022;-79
2022/11/13 01:01:28;;;;;;;54.55;27.35;;;12.20;73.30;;;;;;7371329;19;20053;-79
2022/11/13 01:03:56;;;;;;;54.15;28.05;;;12.10;73.30;;;;;;7394106;19;20018;-79
2022/11/13 01:06:27;;;;;;;54.15;26.70;;;12.20;73.30;;;;;;7373974;19;20022;-79
2022/11/13 01:08:57;;;;;;;62.17;27.83;;;12.20;73.20;;;;;;7374042;19;20101;-78
2022/11/13 01:11:31;;;;;;;53.15;26.42;;;12.20;73.20;;;;;;7373027;19;20018;-79
2022/11/13 01:14:00;;;;;;;52.95;25.92;;;12.20;73.20;;;;;;7373570;19;20090;-79
2022/11/13 01:16:30;;;;;;;52.65;25.63;;;12.20;73.00;;;;;;7371977;19;20023;-79
2022/11/13 01:18:58;;;;;;;47.67;24.77;;;12.20;73.00;;;;;;7392752;19;20014;-79
2022/11/13 01:21:29;;;;;;;61.25;26.73;;;12.20;72.90;;;;;;7375255;19;20319;-79
2022/11/13 01:23:57;;;;;;;61.65;27.42;;;12.20;73.10;;;;;;7372477;19;20025;-79
2022/11/13 01:26:31;;;;;;;55.25;27.02;;;12.20;73.90;;;;;;7374288;19;20642;-79
2022/11/13 01:29:01;;;;;;;60.60;25.58;;;12.20;73.10;;;;;;7371647;19;20108;-79
2022/11/13 01:31:32;;;;;;;54.92;25.88;;;12.30;73.20;;;;;;7372110;19;20018;-79
2022/11/13 01:34:01;;;;;;;69.75;25.48;;;12.30;73.20;;;;;;7392144;19;20077;-79
2022/11/13 01:36:31;;;;;;;64.45;25.45;;;12.30;73.20;;;;;;7371731;19;20022;-79
2022/11/13 01:38:59;;;;;;;71.05;26.52;;;12.30;73.20;;;;;;7372666;19;20018;-79
2022/11/13 01:41:33;;;;;;;58.72;26.52;;;12.20;73.20;;;;;;7372082;19;20019;-78
2022/11/13 01:44:02;;;;;;;56.33;24.15;;;12.30;73.30;;;;;;7371821;19;20043;-79
2022/11/13 01:46:33;;;;;;;56.28;26.08;;;12.20;73.30;;;;;;7372904;19;20039;-79
2022/11/13 01:49:16;;;;;;;54.63;26.52;;;12.30;73.40;;;;;;7392900;19;20325;-79
2022/11/13 01:51:49;;;;;;;47.28;23.65;;;12.30;73.50;;;;;;7372394;19;20010;-79
2022/11/13 01:54:24;;;;;;;53.13;24.73;;;12.30;73.60;;;;;;7369546;19;20106;-79
2022/11/13 01:56:56;;;;;;;51.72;24.83;;;12.30;73.60;;;;;;7372366;19;20112;-79
2022/11/13 01:59:28;;;;;;;54.05;24.45;;;12.30;73.60;;;;;;7370219;19;20022;-79
2022/11/13 02:01:57;;;;;;;60.55;26.33;;;12.30;73.50;;;;;;7370802;19;20454;-79
2022/11/13 02:04:27;;;;;;;77.05;25.98;;;12.30;73.50;;;;;;7369059;19;20029;-79
2022/11/13 02:06:59;;;;;;;117.68;26.17;;;12.30;73.50;;;;;;7394331;19;20018;-79
2022/11/13 02:09:30;;;;;;;59.30;26.10;;;12.30;73.50;;;;;;7371363;19;20018;-79
2022/11/13 02:12:01;;;;;;;;;;;12.30;73.60;;;;;;7371244;19;20078;-79
2022/11/13 02:14:31;;;;;;;81.20;22.38;;;12.30;73.80;;;;;;7368591;19;20333;-79
2022/11/13 02:17:03;;;;;;;87.32;27.73;;;12.20;73.70;;;;;;7369785;19;20014;-79
2022/11/13 02:19:37;;;;;;;51.92;23.58;;;12.20;73.50;;;;;;7369023;19;20011;-79
2022/11/13 02:22:18;;;;;;;50.80;22.05;;;12.10;73.50;;;;;;7391429;19;20026;-79
2022/11/13 02:24:50;;;;;;;48.67;22.13;;;12.10;73.70;;;;;;7370991;19;20015;-77
2022/11/13 02:27:25;;;;;;;49.00;22.70;;;12.00;73.60;;;;;;7365323;19;20015;-77
2022/11/13 02:29:54;;;;;;;53.10;22.58;;;12.00;73.50;;;;;;7361031;19;20610;-79
2022/11/13 02:32:23;;;;;;;43.97;21.27;;;12.00;73.40;;;;;;7368128;19;20120;-78
2022/11/13 02:34:51;;;;;;;41.00;20.73;;;12.00;73.40;;;;;;7366915;19;20110;-78
2022/11/13 02:37:20;;;;;;;46.33;22.85;;;12.00;73.30;;;;;;7364950;19;20026;-78
2022/11/13 02:39:52;;;;;;;50.55;21.02;;;12.00;73.10;;;;;;7386051;19;20018;-77
2022/11/13 02:42:21;;;;;;;41.97;21.73;;;12.00;73.00;;;;;;7360293;19;20018;-77
2022/11/13 02:44:50;;;;;;;40.67;21.83;;;12.00;72.80;;;;;;7363709;19;20016;-77
2022/11/13 02:47:18;;;;;;;46.88;22.10;;;12.00;72.90;;;;;;7360970;19;20031;-77
2022/11/13 02:49:47;;;;;;;43.88;21.50;;;12.00;72.60;;;;;;7360561;19;20015;-77
2022/11/13 02:52:16;;;;;;;36.63;19.92;;;12.00;72.60;;;;;;7363681;19;20033;-77
2022/11/13 02:54:44;;;;;;;37.70;20.25;;;12.00;72.50;;;;;;7385274;19;20106;-78
2022/11/13 02:57:16;;;;;;;40.13;20.88;;;12.00;72.40;;;;;;7362546;19;20010;-78
2022/11/13 02:59:45;;;;;;;107.50;26.65;;;12.10;72.50;;;;;;7363023;19;20022;-77
2022/11/13 03:02:13;;;;;;;93.78;23.00;;;12.10;72.60;;;;;;7362632;19;20422;-78
2022/11/13 03:04:43;;;;;;;51.53;22.48;;;12.00;72.40;;;;;;7362175;19;20074;-77
2022/11/13 03:07:12;;;;;;;56.85;24.00;;;12.00;72.60;;;;;;7383289;19;20015;-78
2022/11/13 03:09:41;;;;;;;45.80;23.15;;;12.00;73.00;;;;;;7364798;19;20014;-77
2022/11/13 03:12:11;;;;;;;46.67;23.27;;;12.00;73.60;;;;;;7366181;19;20014;-77
2022/11/13 03:14:42;;;;;;;48.83;24.02;;;12.00;74.10;;;;;;7367487;19;20095;-77
2022/11/13 03:17:11;;;;;;;40.20;21.63;;;12.10;73.50;;;;;;7366239;19;20102;-77
2022/11/13 03:19:39;;;;;;;41.05;21.65;;;12.10;73.60;;;;;;7364820;19;20035;-77
2022/11/13 03:22:08;;;;;;;43.90;21.92;;;12.10;73.50;;;;;;7387085;19;20053;-77
2022/11/13 03:24:37;;;;;;;44.25;23.05;;;12.20;73.20;;;;;;7366126;19;20025;-78
2022/11/13 03:27:06;;;;;;;38.20;21.30;;;12.20;73.00;;;;;;7365308;19;20031;-78
2022/11/13 03:29:35;;;;;;;40.50;20.75;;;12.20;73.30;;;;;;7366447;19;20042;-78
2022/11/13 03:32:07;;;;;;;39.45;20.65;;;12.20;73.50;;;;;;7365134;19;20027;-78
2022/11/13 03:34:37;;;;;;;42.60;20.85;;;12.30;73.60;;;;;;7368603;19;20079;-77
2022/11/13 03:37:06;;;;;;;40.08;21.10;;;12.30;73.60;;;;;;7388302;19;20011;-78
2022/11/13 03:39:35;;;;;;;37.75;20.35;;;12.30;73.50;;;;;;7363022;19;20130;-78
2022/11/13 03:42:03;;;;;;;41.35;20.85;;;12.30;73.30;;;;;;7364635;19;20014;-77
2022/11/13 03:44:32;;;;;;;37.75;21.02;;;12.40;73.50;;;;;;7368487;19;20014;-77
2022/11/13 03:47:01;;;;;;;39.45;20.15;;;12.40;73.30;;;;;;7367914;19;20074;-77
2022/11/13 03:49:35;;;;;;;36.30;19.92;;;12.40;73.50;;;;;;7369244;19;20026;-78
2022/11/13 03:52:03;;;;;;;40.63;19.80;;;12.40;73.70;;;;;;7387247;19;20026;-78
2022/11/13 03:54:32;;;;;;;37.20;19.52;;;12.40;73.60;;;;;;7367410;19;20040;-77
2022/11/13 03:57:01;;;;;;;40.08;19.90;;;12.40;73.60;;;;;;7366745;19;20015;-77
2022/11/13 03:59:30;;;;;;;36.83;19.15;;;12.30;73.70;;;;;;7367361;19;20130;-78
2022/11/13 04:01:59;;;;;;;37.28;20.65;;;12.40;74.00;;;;;;7367864;19;20018;-77
2022/11/13 04:04:28;;;;;;;32.78;19.98;;;12.40;74.10;;;;;;7366729;19;20035;-78
2022/11/13 04:06:59;;;;;;;38.17;21.00;;;12.40;74.20;;;;;;7389079;19;20048;-77
2022/11/13 04:09:28;;;;;;;39.90;19.13;;;12.40;74.40;;;;;;7364673;19;20014;-78
2022/11/13 04:11:56;;;;;;;38.10;20.35;;;12.40;74.30;;;;;;7368694;19;20092;-77
2022/11/13 04:14:25;;;;;;;35.55;19.70;;;12.40;74.20;;;;;;7362886;19;20416;-78
2022/11/13 04:16:54;;;;;;;33.67;19.20;;;12.30;74.30;;;;;;7368374;19;20006;-78
2022/11/13 04:19:23;;;;;;;30.88;18.60;;;12.40;74.60;;;;;;7370624;19;20106;-77
2022/11/13 04:21:51;;;;;;;31.70;18.00;;;12.40;74.90;;;;;;7395215;19;20094;-77
2022/11/13 04:24:23;;;;;;;29.20;17.60;;;12.30;75.00;;;;;;7373639;19;20018;-77
2022/11/13 04:26:51;;;;;;;32.50;18.52;;;12.40;75.10;;;;;;7372951;19;20015;-77
2022/11/13 04:29:20;;;;;;;32.53;18.70;;;12.50;75.20;;;;;;7372623;19;20100;-77
2022/11/13 04:31:49;;;;;;;35.90;17.88;;;12.50;75.10;;;;;;7374557;19;20027;-77
2022/11/13 04:34:18;;;;;;;29.08;17.40;;;12.50;75.10;;;;;;7374298;19;20025;-78
2022/11/13 04:36:46;;;;;;;30.42;18.95;;;12.50;75.20;;;;;;7391961;19;20047;-77
2022/11/13 04:39:15;;;;;;;30.77;19.48;;;12.60;75.10;;;;;;7372365;19;20019;-77
2022/11/13 04:44:28;;;;;;;32.80;17.88;;;12.60;75.10;;;;;;7374595;19;20338;-77
2022/11/13 04:46:57;;;;;;;29.83;16.80;;;12.60;75.20;;;;;;7373571;19;20095;-77
2022/11/13 04:49:25;;;;;;;31.05;17.67;;;12.60;75.20;;;;;;7372369;19;20479;-78
2022/11/13 04:51:54;;;;;;;31.80;17.38;;;12.60;75.40;;;;;;7394226;19;20493;-77
2022/11/13 04:54:23;;;;;;;28.92;17.30;;;12.70;75.50;;;;;;7372365;19;20102;-78
2022/11/13 04:56:54;;;;;;;28.77;17.70;;;12.70;75.50;;;;;;7371828;19;20044;-78
2022/11/13 04:59:23;;;;;;;31.77;17.45;;;12.70;75.60;;;;;;7372963;19;20442;-77
2022/11/13 05:01:54;;;;;;;30.23;16.52;;;12.70;75.60;;;;;;7371232;19;20035;-78
2022/11/13 05:04:23;;;;;;;30.67;17.13;;;12.80;75.60;;;;;;7371855;19;20015;-78
2022/11/13 05:06:52;;;;;;;31.85;18.27;;;12.80;75.50;;;;;;7393948;19;20035;-78
2022/11/13 05:09:21;;;;;;;33.70;17.52;;;12.80;75.50;;;;;;7373650;19;20082;-77
2022/11/13 05:11:50;;;;;;;33.55;17.90;;;12.80;76.30;;;;;;7375252;19;20014;-78
2022/11/13 05:14:22;;;;;;;33.55;17.25;;;12.80;75.60;;;;;;7372907;19;20039;-77
2022/11/13 05:16:51;;;;;;;30.98;16.67;;;12.80;75.60;;;;;;7378729;19;20010;-84
2022/11/13 05:19:20;;;;;;;30.58;18.17;;;12.80;75.60;;;;;;7377136;19;20081;-82
2022/11/13 05:21:49;;;;;;;33.83;18.17;;;12.80;75.80;;;;;;7399353;19;20445;-83
2022/11/13 05:24:18;;;;;;;30.42;17.65;;;12.80;75.80;;;;;;7381949;19;20090;-83
2022/11/13 05:26:46;;;;;;;34.38;18.95;;;12.80;75.80;;;;;;7397478;19;20014;-83
2022/11/13 05:29:15;;;;;;;33.40;18.20;;;12.80;75.80;;;;;;7398394;19;20018;-83
2022/11/13 05:31:47;;;;;;;36.85;18.73;;;12.80;75.90;;;;;;7378934;19;20031;-83
2022/11/13 05:34:16;;;;;;;28.95;17.50;;;12.70;76.00;;;;;;7384182;19;20039;-83
2022/11/13 05:36:45;;;;;;;30.73;18.85;;;12.70;76.10;;;;;;7397831;19;20019;-85
2022/11/13 05:39:14;;;;;;;35.35;18.20;;;12.80;76.20;;;;;;7386371;19;20035;-85
2022/11/13 05:41:43;;;;;;;36.70;19.17;;;12.70;76.10;;;;;;7379166;19;20361;-86
2022/11/13 05:44:11;;;;;;;32.47;18.80;;;12.70;76.20;;;;;;7376220;19;20015;-86
2022/11/13 05:46:40;;;;;;;31.08;18.17;;;12.80;76.20;;;;;;7373982;19;20033;-85
2022/11/13 05:49:12;;;;;;;37.05;18.63;;;12.70;76.10;;;;;;7399166;19;20094;-86
2022/11/13 05:51:40;;;;;;;;;;;12.70;76.10;;;;;;7377503;19;20102;-86
2022/11/13 05:54:09;;;;;;;34.85;18.77;;;12.70;76.30;;;;;;7375910;19;19998;-86
2022/11/13 05:56:39;;;;;;;37.28;20.33;;;12.70;76.10;;;;;;7376064;19;20082;-87
2022/11/13 05:59:08;;;;;;;33.42;20.27;;;12.60;76.00;;;;;;7375813;19;20066;-86
2022/11/13 06:01:39;;;;;;;40.38;20.77;;;12.60;76.10;;;;;;7379923;19;20019;-86
2022/11/13 06:04:11;;;;;;;33.83;19.77;;;12.60;76.10;;;;;;7397110;19;20497;-86
2022/11/13 06:06:41;;;;;;;40.25;21.33;;;12.50;76.10;;;;;;7376319;19;20078;-85
2022/11/13 06:09:09;;;;;;;38.72;20.17;;;12.50;76.00;;;;;;7374151;19;20887;-85
2022/11/13 06:11:38;;;;;;;38.78;20.58;;;12.40;76.00;;;;;;7375726;19;20018;-85
2022/11/13 06:14:07;;;;;;;36.83;19.65;;;12.40;76.20;;;;;;7377265;19;20037;-85
2022/11/13 06:16:37;;;;;;;35.08;20.05;;;12.40;76.30;;;;;;7378470;19;20007;-86
2022/11/13 06:19:08;;;;;;;38.75;20.20;;;12.40;76.40;;;;;;7401912;19;20263;-85
2022/11/13 06:21:41;;;;;;;40.17;19.33;;;12.40;76.30;;;;;;7377453;19;20022;-85
2022/11/13 06:24:12;;;;;;;36.85;18.88;;;12.30;76.10;;;;;;7374701;19;20098;-85
2022/11/13 06:26:41;;;;;;;32.50;17.17;;;12.30;76.00;;;;;;7374527;19;20117;-85
2022/11/13 06:29:12;;;;;;;34.42;19.52;;;12.30;76.00;;;;;;7373936;19;20050;-85
2022/11/13 06:31:41;;;;;;;29.80;17.58;;;12.20;76.00;;;;;;7376948;19;20011;-85
2022/11/13 06:34:10;;;;;;;35.85;19.58;;;12.30;76.10;;;;;;7398868;19;20437;-85
2022/11/13 06:36:42;;;;;;;36.58;18.52;;;12.20;76.10;;;;;;7376091;19;20083;-86
2022/11/13 06:39:12;;;;;;;39.53;18.73;;;12.20;76.30;;;;;;7374076;19;20054;-86
2022/11/13 06:41:41;;;;;;;39.33;18.40;;;12.20;76.30;;;;;;7375064;19;20017;-84
2022/11/13 06:44:10;;;;;;;36.55;19.48;;;12.20;76.20;;;;;;7375361;19;20322;-85
2022/11/13 06:46:38;;;;;;;36.58;18.95;;;12.20;76.70;;;;;;7378353;19;20349;-84
2022/11/13 06:49:07;;;;;;;34.55;17.67;;;12.20;75.70;;;;;;7416019;19;20017;-86
2022/11/13 06:51:36;;;;;;;38.35;18.60;;;12.20;75.50;;;;;;7405633;19;20256;-86
2022/11/13 06:54:07;;;;;;;35.40;17.95;;;12.10;75.40;;;;;;7397632;19;20026;-86
2022/11/13 06:56:36;;;;;;;31.20;17.27;;;12.10;75.50;;;;;;7374647;19;20014;-86
2022/11/13 06:59:05;;;;;;;34.15;18.10;;;12.10;75.40;;;;;;7379457;19;20014;-86
2022/11/13 07:01:34;;;;;;;34.33;19.02;;;12.10;75.20;;;;;;7380170;19;20015;-86
2022/11/13 07:04:03;;;;;;;33.75;18.77;;;12.10;75.20;;;;;;7396555;19;20473;-86
2022/11/13 07:06:32;;;;;;;34.47;17.17;;;12.10;75.20;;;;;;7372612;19;20022;-85
2022/11/13 07:09:00;;;;;;;33.42;18.67;;;12.10;75.10;;;;;;7373935;19;20018;-86
2022/11/13 07:11:32;;;;;;;37.15;17.85;;;12.10;75.10;;;;;;7373665;19;20031;-86
2022/11/13 07:14:00;;;;;;;31.25;17.90;;;12.00;75.10;;;;;;7374051;19;20358;-85
2022/11/13 07:16:29;;;;;;;31.08;18.38;;;12.00;75.00;;;;;;7372355;19;20039;-85
2022/11/13 07:18:58;;;;;;;35.13;17.90;;;12.00;74.80;;;;;;7393048;19;20014;-85
2022/11/13 07:21:27;;;;;;;31.17;18.00;;;12.00;74.80;;;;;;7373599;19;20014;-85
2022/11/13 07:23:55;;;;;;;34.75;19.05;;;12.00;75.00;;;;;;7373349;19;20035;-85
2022/11/13 07:26:24;;;;;;;37.65;18.13;;;12.00;75.10;;;;;;7373869;19;20018;-87
2022/11/13 07:28:56;;;;;;;32.10;17.83;;;12.00;74.90;;;;;;7371933;19;20414;-86
2022/11/13 07:31:25;;;;;;;39.13;18.58;;;11.90;74.70;;;;;;7372326;19;20018;-86
2022/11/13 07:33:53;;;;;;;35.15;18.00;;;12.00;74.70;;;;;;7396085;19;20043;-85
2022/11/13 07:36:22;;;;;;;35.40;18.95;;;11.90;74.70;;;;;;7372238;19;20330;-86
2022/11/13 07:38:51;;;;;;;38.80;18.33;;;12.00;74.80;;;;;;7374712;19;20437;-86
2022/11/13 07:41:19;;;;;;;38.90;18.48;;;11.90;75.00;;;;;;7377790;19;20035;-86
2022/11/13 07:43:48;;;;;;;35.42;18.85;;;12.00;75.10;;;;;;7378469;19;20081;-86
2022/11/13 07:46:19;;;;;;;36.03;20.33;;;12.00;75.10;;;;;;7376328;19;20015;-85
2022/11/13 07:48:48;;;;;;;42.10;19.65;;;12.00;75.10;;;;;;7395591;19;20022;-86
2022/11/13 07:51:17;;;;;;;36.50;19.73;;;12.00;75.80;;;;;;7375565;19;20018;-85
2022/11/13 07:53:46;;;;;;;37.90;19.75;;;12.00;75.10;;;;;;7381492;19;20078;-86
2022/11/13 07:56:14;;;;;;;48.38;22.50;;;12.10;75.20;;;;;;7377224;19;20078;-85
2022/11/13 07:58:43;;;;;;;44.38;22.05;;;12.10;75.20;;;;;;7381071;19;20171;-85
2022/11/13 08:01:12;;;;;;;45.80;22.35;;;12.10;75.20;;;;;;7401740;19;20014;-86
2022/11/13 08:03:43;;;;;;;52.50;25.00;;;12.20;75.40;;;;;;7380632;19;20045;-85
2022/11/13 08:06:12;;;;;;;46.40;24.60;;;12.20;75.60;;;;;;7381071;19;20018;-85
2022/11/13 08:08:41;;;;;;;42.42;23.40;;;12.20;75.90;;;;;;7381889;19;20010;-85
2022/11/13 08:11:11;;;;;;;50.25;24.77;;;12.20;76.00;;;;;;7389636;19;20014;-85
2022/11/13 08:13:39;;;;;;;57.85;30.10;;;12.30;76.10;;;;;;7405700;19;20029;-84
2022/11/13 08:16:09;;;;;;;53.25;25.63;;;12.30;76.10;;;;;;7413265;19;20074;-85
2022/11/13 08:18:37;;;;;;;97.28;42.75;;;12.30;76.20;;;;;;7379628;19;20021;-86
2022/11/13 08:21:09;;;;;;;117.40;49.45;;;12.30;76.30;;;;;;7382223;19;20050;-85
2022/11/13 08:23:37;;;;;;;84.93;41.70;;;12.40;77.30;;;;;;7386574;19;20003;-86
2022/11/13 08:26:07;;;;;;;70.30;36.03;;;12.40;76.60;;;;;;7379860;19;20025;-85
2022/11/13 08:28:37;;;;;;;65.45;30.20;;;12.40;76.60;;;;;;7378672;19;20007;-86
2022/11/13 08:31:06;;;;;;;58.60;28.48;;;12.50;76.90;;;;;;7399347;19;20100;-87
2022/11/13 08:33:36;;;;;;;51.28;27.80;;;12.50;77.10;;;;;;7380101;19;20468;-87
2022/11/13 08:36:05;;;;;;;45.20;24.52;;;12.60;77.50;;;;;;7380590;19;20019;-88
2022/11/13 08:38:36;;;;;;;45.63;24.88;;;12.60;77.70;;;;;;7379924;19;20114;-87
2022/11/13 08:41:06;;;;;;;;;;;12.70;78.00;;;;;;7379466;19;20039;-87
2022/11/13 08:43:35;;;;;;;47.13;25.38;;;12.80;78.30;;;;;;7383594;19;19952;-88
2022/11/13 08:46:03;;;;;;;44.10;24.65;;;12.80;78.30;;;;;;7403032;19;20022;-88
2022/11/13 08:48:33;;;;;;;40.45;23.15;;;12.80;79.40;;;;;;7380156;19;20019;-87
2022/11/13 08:51:01;;;;;;;39.63;22.35;;;12.90;78.70;;;;;;7379735;19;20044;-88
2022/11/13 08:53:30;;;;;;;45.55;23.15;;;12.90;78.70;;;;;;7380384;19;20027;-88
2022/11/13 08:56:04;;;;;;;44.20;24.27;;;12.90;78.80;;;;;;7380565;19;20031;-88
2022/11/13 08:58:33;;;;;;;43.75;23.88;;;12.90;79.00;;;;;;7381271;19;20040;-88
2022/11/13 09:01:02;;;;;;;46.33;24.45;;;12.90;79.10;;;;;;7403474;19;20452;-88
2022/11/13 09:03:31;;;;;;;44.35;25.17;;;12.90;79.30;;;;;;7384245;19;20485;-89
2022/11/13 09:06:00;;;;;;;45.92;25.10;;;13.00;79.50;;;;;;7387339;19;20031;-90
2022/11/13 09:08:31;;;;;;;45.45;25.50;;;13.00;79.40;;;;;;7385496;19;20018;-89
2022/11/13 09:11:09;;;;;;;43.45;25.95;;;13.00;79.20;;;;;;7380693;19;20054;-89
2022/11/13 09:13:40;;;;;;;44.90;26.88;;;13.10;79.30;;;;;;7381895;19;20086;-88
2022/11/13 09:16:09;;;;;;;46.38;26.52;;;13.10;79.00;;;;;;7399674;19;20017;-89
2022/11/13 09:18:38;;;;;;;49.95;25.08;;;13.10;78.80;;;;;;7383331;19;20769;-88
2022/11/13 09:21:07;;;;;;;39.80;23.58;;;13.20;78.90;;;;;;7380522;19;20094;-87
2022/11/13 09:23:36;;;;;;;44.15;23.30;;;13.20;78.80;;;;;;7382325;19;20015;-86
2022/11/13 09:26:07;;;;;;;40.00;23.65;;;13.20;78.70;;;;;;7380366;19;20014;-86
2022/11/13 09:28:36;;;;;;;41.13;23.77;;;13.20;78.60;;;;;;7375888;19;20029;-86
2022/11/13 09:31:06;;;;;;;39.83;22.95;;;13.20;78.60;;;;;;7394389;19;20039;-86
2022/11/13 09:33:35;;;;;;;36.97;21.67;;;13.20;78.50;;;;;;7383502;19;20018;-86
2022/11/13 09:36:05;;;;;;;36.97;22.13;;;13.20;78.60;;;;;;7396936;19;20014;-86
2022/11/13 09:38:33;;;;;;;36.38;21.10;;;13.20;78.60;;;;;;7405160;19;20498;-86
2022/11/13 09:41:08;;;;;;;38.05;21.02;;;13.20;78.60;;;;;;7401261;19;20018;-86
2022/11/13 09:43:42;;;;;;;42.28;21.58;;;13.20;78.70;;;;;;7395526;19;20022;-86
2022/11/13 09:46:17;;;;;;;37.75;20.48;;;13.30;78.80;;;;;;7406417;19;20619;-86
2022/11/13 09:48:51;;;;;;;35.80;20.80;;;13.30;78.90;;;;;;7383495;19;20019;-86
2022/11/13 09:51:24;;;;;;;36.45;19.98;;;13.30;78.80;;;;;;7375620;19;20048;-86
2022/11/13 09:53:53;;;;;;;32.53;19.42;;;13.30;79.60;;;;;;7374143;19;20026;-86
2022/11/13 09:56:31;;;;;;;35.05;20.30;;;13.40;78.90;;;;;;7372950;19;20018;-86
2022/11/13 09:59:05;;;;;;;36.17;19.52;;;13.40;78.90;;;;;;7374325;19;20048;-86
2022/11/13 10:01:47;;;;;;;38.85;19.83;;;13.40;78.80;;;;;;7372471;19;20536;-86
2022/11/13 10:04:17;;;;;;;;;;;13.40;78.80;;;;;;7384397;19;20039;-85
2022/11/13 10:06:57;;;;;;;36.22;19.40;;;13.50;78.90;;;;;;7397182;19;19919;-86
2022/11/13 10:09:37;;;;;;;32.22;18.63;;;13.50;78.70;;;;;;7377390;19;20418;-86
2022/11/13 10:12:12;;;;;;;29.73;19.13;;;13.50;78.80;;;;;;7374974;19;20028;-86
2022/11/13 10:14:45;;;;;;;34.38;19.27;;;13.50;78.90;;;;;;7376633;19;21190;-86
2022/11/13 10:17:21;;;;;;;31.17;19.20;;;13.60;79.10;;;;;;7376004;19;20011;-86
2022/11/13 10:19:56;;;;;;;36.75;19.73;;;13.50;79.10;;;;;;7374849;19;20018;-86
2022/11/13 10:22:33;;;;;;;31.25;18.88;;;13.60;79.20;;;;;;7374271;19;20030;-86
2022/11/13 10:25:11;;;;;;;40.42;18.95;;;13.60;79.30;;;;;;7394408;19;20082;-85
2022/11/13 10:27:42;;;;;;;39.17;19.48;;;13.60;79.40;;;;;;7373520;19;20010;-86
2022/11/13 10:30:18;;;;;;;32.72;19.17;;;13.70;79.40;;;;;;7376465;19;20028;-86
2022/11/13 10:32:48;;;;;;;35.10;20.08;;;13.60;79.40;;;;;;7376357;19;20018;-86
2022/11/13 10:35:40;;;;;;;36.83;20.15;;;13.70;79.40;;;;;;7374004;19;20018;-85
2022/11/13 10:38:17;;;;;;;35.20;19.98;;;13.70;79.50;;;;;;7375237;19;20094;-87
2022/11/13 10:40:46;;;;;;;35.35;21.17;;;13.70;79.40;;;;;;7373322;19;20015;-86
2022/11/13 10:43:21;;;;;;;36.40;20.40;;;13.80;79.20;;;;;;7388866;19;20132;-85
2022/11/13 10:45:58;;;;;;;34.80;20.17;;;13.80;79.20;;;;;;7396133;19;20035;-86
2022/11/13 10:48:29;;;;;;;36.83;20.15;;;13.90;79.30;;;;;;7375309;19;20015;-86
2022/11/13 10:51:01;;;;;;;39.47;20.92;;;13.80;78.90;;;;;;7374100;19;20011;-86
2022/11/13 10:53:39;;;;;;;36.38;20.40;;;13.90;79.00;;;;;;7376835;19;20023;-88
2022/11/13 10:56:23;;;;;;;38.08;21.55;;;13.80;79.00;;;;;;7378364;19;20022;-88
2022/11/13 10:59:11;;;;;;;34.65;20.30;;;13.90;79.20;;;;;;7382617;19;20054;-88
2022/11/13 11:01:41;;;;;;;33.60;20.42;;;13.90;79.20;;;;;;7391889;19;20469;-88
2022/11/13 11:04:15;;;;;;;38.17;20.10;;;13.90;79.10;;;;;;7426640;19;20019;-87
2022/11/13 11:06:44;;;;;;;31.60;19.55;;;14.00;79.20;;;;;;7406670;19;20036;-87
2022/11/13 11:09:22;;;;;;;32.90;19.35;;;14.00;79.00;;;;;;7390180;19;20014;-85
2022/11/13 11:12:18;;;;;;;35.45;19.30;;;14.00;79.00;;;;;;7375937;19;20081;-86
2022/11/13 11:15:07;;;;;;;31.83;19.98;;;14.00;79.40;;;;;;7373382;19;20035;-86
2022/11/13 11:17:42;;;;;;;33.00;19.40;;;14.00;79.40;;;;;;7376518;19;20354;-86
2022/11/13 11:20:22;;;;;;;31.75;18.33;;;14.10;79.40;;;;;;7379804;19;20035;-86
2022/11/13 11:22:55;;;;;;;32.58;18.95;;;14.10;79.20;;;;;;7376682;19;20014;-86
2022/11/13 11:25:33;;;;;;;31.92;19.88;;;14.10;79.00;;;;;;7370391;19;20694;-86
2022/11/13 11:28:07;;;;;;;30.77;19.33;;;14.10;78.90;;;;;;7398703;19;20078;-86
2022/11/13 11:30:45;;;;;;;32.92;19.63;;;14.10;78.90;;;;;;7375433;19;20021;-86
2022/11/13 11:33:20;;;;;;;32.55;17.98;;;14.20;79.00;;;;;;7380740;19;20375;-85
2022/11/13 11:35:54;;;;;;;29.58;17.75;;;14.20;79.00;;;;;;7378752;19;20090;-86
2022/11/13 11:38:28;;;;;;;28.25;18.00;;;14.30;79.10;;;;;;7384460;19;20031;-85
2022/11/13 11:41:05;;;;;;;26.73;17.35;;;14.30;79.00;;;;;;7379377;19;20644;-85
2022/11/13 11:43:42;;;;;;;29.15;18.08;;;14.30;78.90;;;;;;7379949;19;20026;-85
2022/11/13 11:46:16;;;;;;;32.80;19.15;;;14.40;78.80;;;;;;7397435;19;20015;-85
2022/11/13 11:48:45;;;;;;;30.38;17.60;;;14.40;78.70;;;;;;7378899;19;20497;-85
2022/11/13 11:51:24;;;;;;;29.80;17.55;;;14.50;78.70;;;;;;7379671;19;20337;-86
2022/11/13 11:54:04;;;;;;;32.63;17.55;;;14.50;78.70;;;;;;7378925;19;20078;-87
2022/11/13 11:56:36;;;;;;;27.92;17.80;;;14.60;78.70;;;;;;7382318;19;20383;-86
2022/11/13 11:59:24;;;;;;;31.70;17.20;;;14.60;78.60;;;;;;7379764;19;20085;-86
2022/11/13 12:02:19;;;;;;;26.60;17.25;;;14.70;78.60;;;;;;7379324;19;20019;-84
2022/11/13 12:05:02;;;;;;;33.22;17.58;;;14.70;78.30;;;;;;7375710;19;20098;-86
2022/11/13 12:07:40;;;;;;;24.58;16.20;;;14.90;78.10;;;;;;7373005;19;20018;-85
2022/11/13 12:10:20;;;;;;;28.35;16.65;;;14.90;78.00;;;;;;7403743;19;20015;-88
2022/11/13 12:13:03;;;;;;;26.47;16.10;;;15.00;77.80;;;;;;7390029;19;20035;-88
2022/11/13 12:15:41;;;;;;;26.45;17.13;;;15.00;77.70;;;;;;7398323;19;20017;-90
2022/11/13 12:18:18;;;;;;;30.65;16.88;;;15.10;77.60;;;;;;7400645;19;20056;-89
2022/11/13 12:20:58;;;;;;;28.52;15.80;;;15.20;77.50;;;;;;7396697;19;20035;-89
2022/11/13 12:23:42;;;;;;;24.83;15.95;;;15.20;77.30;;;;;;7385370;19;20039;-89
2022/11/13 12:26:19;;;;;;;26.23;15.70;;;15.30;77.30;;;;;;7392331;19;20022;-90
2022/11/13 12:28:52;;;;;;;29.45;16.45;;;15.30;77.00;;;;;;7390626;19;20018;-90
2022/11/13 12:31:41;;;;;;;23.80;15.60;;;15.40;76.90;;;;;;7382032;19;20021;-86
2022/11/13 12:34:20;;;;;;;28.98;16.90;;;15.50;76.90;;;;;;7432838;19;20022;-91
2022/11/13 12:36:50;;;;;;;28.08;17.27;;;15.60;77.00;;;;;;7410110;19;20009;-92
2022/11/13 12:39:40;;;;;;;23.85;15.98;;;15.70;76.70;;;;;;7389371;19;20026;-89
2022/11/13 12:42:21;;;;;;;28.52;16.73;;;15.70;76.00;;;;;;7401093;19;20019;-92
2022/11/13 13:15:57;;;;;;;26.17;14.15;;;16.60;74.00;;;;;;7344264;19;20021;-93
2022/11/13 13:21:07;;;;;;;22.30;12.35;;;16.70;73.50;;;;;;7364711;19;19991;-92
2022/11/13 13:34:01;;;;;;;20.70;12.77;;;17.00;72.50;;;;;;7363590;19;20007;-81
2022/11/13 13:36:44;;;;;;;22.25;12.55;;;17.00;72.30;;;;;;7406728;19;20031;-90